createdAt,value
2023-05-05T01:31:18.482Z,101138.88
2023-05-05T01:34:09.303Z,101138.13
2023-05-05T01:36:42.642Z,101132.41
2023-05-05T01:39:33.231Z,101112.69
2023-05-05T01:42:08.120Z,101142.81
2023-05-05T01:44:56.977Z,101147.56
2023-05-05T01:47:26.724Z,101116.41
2023-05-05T01:49:57.404Z,101139.91
2023-05-05T01:52:28.429Z,101121.94
2023-05-05T01:54:59.245Z,101125.75
2023-05-05T01:57:47.196Z,101142.06
2023-05-05T02:00:18.462Z,101136.47
2023-05-05T02:02:49.906Z,101134.53
2023-05-05T02:05:26.388Z,101134.31
2023-05-05T02:08:15.655Z,101091.50
2023-05-05T02:10:50.890Z,101117.72
2023-05-05T02:13:24.093Z,101065.09
2023-05-05T02:16:12.123Z,101108.41
2023-05-05T02:18:42.537Z,101087.50
2023-05-05T02:21:14.714Z,101097.78
2023-05-05T02:23:43.998Z,101123.78
2023-05-05T02:26:18.048Z,101119.75
2023-05-05T02:28:53.533Z,101127.44
2023-05-05T02:31:25.430Z,101131.22
2023-05-05T02:33:58.074Z,101095.78
2023-05-05T02:36:31.802Z,101099.63
2023-05-05T02:39:05.107Z,101104.72
2023-05-05T02:41:36.603Z,101093.72
2023-05-05T02:44:43.024Z,101149.59
2023-05-05T02:47:12.210Z,101141.78
2023-05-05T02:49:42.017Z,101141.19
2023-05-05T02:52:12.906Z,101108.56
2023-05-05T02:54:42.224Z,101148.09
2023-05-05T02:57:15.512Z,101145.44
2023-05-05T02:59:55.084Z,101155.16
2023-05-05T03:02:45.016Z,101148.41
2023-05-05T03:05:33.472Z,101150.19
2023-05-05T03:08:06.409Z,101142.44
2023-05-05T03:10:42.040Z,101123.41
2023-05-05T03:13:13.725Z,101120.91
2023-05-05T03:15:48.446Z,101140.19
2023-05-05T03:18:36.278Z,101126.31
2023-05-05T03:21:23.855Z,101097.09
2023-05-05T03:23:54.592Z,101115.56
2023-05-05T03:26:25.054Z,101067.38
2023-05-05T03:29:12.782Z,101127.97
2023-05-05T03:31:59.337Z,101130.09
2023-05-05T03:34:47.101Z,101119.97
2023-05-05T03:37:16.366Z,101013.84
2023-05-05T03:39:47.196Z,101115.75
2023-05-05T03:42:34.639Z,101087.28
2023-05-05T03:45:03.891Z,101105.25
2023-05-05T03:47:34.619Z,101104.56
2023-05-05T03:50:03.774Z,101089.72
2023-05-05T03:52:32.965Z,101086.00
2023-05-05T03:55:03.612Z,101094.97
2023-05-05T03:57:34.745Z,101071.34
2023-05-05T04:00:03.990Z,101102.53
2023-05-05T04:02:39.023Z,101089.53
2023-05-05T04:05:09.821Z,101097.28
2023-05-05T04:07:38.983Z,101086.09
2023-05-05T04:10:11.097Z,101087.69
2023-05-05T04:12:59.018Z,101092.09
2023-05-05T04:15:30.400Z,101088.03
2023-05-05T04:18:00.131Z,101068.63
2023-05-05T04:20:31.027Z,101085.16
2023-05-05T04:23:00.405Z,101069.72
2023-05-05T04:25:31.099Z,101051.66
2023-05-05T04:28:00.222Z,101085.59
2023-05-05T04:30:29.473Z,101064.56
2023-05-05T04:33:15.605Z,101077.41
2023-05-05T04:36:02.714Z,101038.28
2023-05-05T04:38:31.977Z,101074.97
2023-05-05T04:41:02.574Z,101071.25
2023-05-05T04:43:31.738Z,101076.53
2023-05-05T04:46:19.160Z,101071.84
2023-05-05T04:49:23.830Z,101063.44
2023-05-05T04:51:52.501Z,101085.63
2023-05-05T04:54:21.837Z,101041.25
2023-05-05T04:56:52.522Z,101086.31
2023-05-05T04:59:56.870Z,101081.03
2023-05-05T05:02:26.125Z,101082.06
2023-05-05T05:04:55.585Z,101084.00
2023-05-05T05:07:43.029Z,101079.66
2023-05-05T05:10:12.729Z,101069.38
2023-05-05T05:13:01.894Z,101087.25
2023-05-05T05:15:31.105Z,101082.75
2023-05-05T05:18:18.454Z,101086.66
2023-05-05T05:20:48.028Z,101073.84
2023-05-05T05:23:17.127Z,101082.03
2023-05-05T05:25:46.621Z,101083.63
2023-05-05T05:28:17.242Z,101092.72
2023-05-05T05:30:46.505Z,101074.44
2023-05-05T05:33:32.621Z,101082.63
2023-05-05T05:36:01.910Z,100979.72
2023-05-05T05:38:31.103Z,101042.34
2023-05-05T05:41:17.065Z,101071.19
2023-05-05T05:43:47.882Z,101045.53
2023-05-05T05:46:35.353Z,101051.56
2023-05-05T05:49:22.533Z,101081.75
2023-05-05T05:51:51.747Z,101052.47
2023-05-05T05:54:39.440Z,100962.88
2023-05-05T05:57:08.790Z,101057.69
2023-05-05T05:59:45.140Z,101019.31
2023-05-05T06:02:17.660Z,101059.09
2023-05-05T06:05:05.057Z,101057.22
2023-05-05T06:07:35.855Z,101016.91
2023-05-05T06:10:22.778Z,100998.53
2023-05-05T06:12:55.590Z,100894.97
2023-05-05T06:15:26.464Z,100949.63
2023-05-05T06:17:55.717Z,100977.38
2023-05-05T06:20:25.464Z,100908.59
2023-05-05T06:22:55.021Z,101026.97
2023-05-05T06:25:24.248Z,101009.72
2023-05-05T06:27:53.684Z,101019.53
2023-05-05T06:30:22.934Z,101011.59
2023-05-05T06:32:54.861Z,100953.44
2023-05-05T06:35:24.817Z,100989.97
2023-05-05T06:37:54.061Z,100967.81
2023-05-05T06:40:32.334Z,100864.63
2023-05-05T06:43:01.547Z,100822.94
2023-05-05T06:46:06.463Z,101044.56
2023-05-05T06:48:37.356Z,101026.34
2023-05-05T06:51:06.585Z,101017.03
2023-05-05T06:53:53.766Z,101030.44
2023-05-05T06:56:22.914Z,101016.25
2023-05-05T06:58:52.294Z,101009.56
2023-05-05T07:01:39.283Z,101016.78
2023-05-05T07:04:09.975Z,100989.66
2023-05-05T07:06:58.827Z,101020.38
2023-05-05T07:09:28.128Z,101009.41
2023-05-05T07:12:32.558Z,101007.44
2023-05-05T07:15:07.044Z,100983.72
2023-05-05T07:18:02.360Z,101001.91
2023-05-05T07:20:33.079Z,100992.22
2023-05-05T07:23:02.261Z,100992.28
2023-05-05T07:25:31.465Z,100947.91
2023-05-05T07:28:00.829Z,100991.19
2023-05-05T07:30:30.065Z,100988.59
2023-05-05T07:32:59.297Z,100991.75
2023-05-05T07:35:29.075Z,100982.16
2023-05-05T07:37:59.782Z,100974.16
2023-05-05T07:40:29.022Z,100984.66
2023-05-05T07:42:58.144Z,100988.41
2023-05-05T07:45:29.356Z,100988.63
2023-05-05T07:47:58.640Z,100984.72
2023-05-05T07:50:28.086Z,100975.63
2023-05-05T07:53:06.144Z,100980.06
2023-05-05T07:55:44.181Z,100971.94
2023-05-05T07:58:13.400Z,100961.38
2023-05-05T08:00:44.260Z,100963.53
2023-05-05T08:03:13.903Z,100985.31
2023-05-05T08:06:00.026Z,100985.34
2023-05-05T08:08:46.023Z,100981.91
2023-05-05T08:11:35.298Z,100980.94
2023-05-05T08:14:04.529Z,100966.53
2023-05-05T08:16:34.017Z,100960.22
2023-05-05T08:19:06.282Z,100953.41
2023-05-05T08:21:39.071Z,100971.50
